Time;durP1;ratioP1;P1;durP2;ratioP2;P2;SDS_P1;SDS_P2;PMS_P1;PMS_P2;Temp;Humidity;BMP_temperature;BMP_pressure;BME280_temperature;BME280_humidity;BME280_pressure;Samples;Min_cycle;Max_cycle;Signal;HPM_P1;HPM_P2
2022/03/11 00:00:17;;;;;;;82.65;40.65;;;4.90;59.00;;;;;;5033288;28;20021;-21
2022/03/11 00:02:43;;;;;;;82.13;40.50;;;4.90;59.80;;;;;;5032633;28;20481;-21
2022/03/11 00:05:09;;;;;;;95.82;45.35;;;4.90;59.60;;;;;;5032896;28;20033;-23
2022/03/11 00:07:35;;;;;;;90.68;42.58;;;4.90;58.70;;;;;;5032804;28;20044;-21
2022/03/11 00:10:01;;;;;;;84.05;43.42;;;4.90;60.10;;;;;;5032860;28;20028;-23
2022/03/11 00:12:27;;;;;;;84.78;39.75;;;4.90;62.30;;;;;;5032531;28;20093;-22
2022/03/11 00:14:53;;;;;;;85.95;40.65;;;4.80;61.70;;;;;;5032913;28;20128;-22
2022/03/11 00:17:19;;;;;;;89.97;42.03;;;4.90;61.90;;;;;;5033307;28;20061;-21
2022/03/11 00:19:45;;;;;;;93.97;43.45;;;4.90;61.90;;;;;;5036229;28;20077;-22
2022/03/11 00:22:11;;;;;;;73.43;35.88;;;4.90;60.90;;;;;;5036240;28;20095;-21
2022/03/11 00:24:37;;;;;;;72.30;35.05;;;4.90;61.10;;;;;;5036523;28;20026;-21
2022/03/11 00:27:03;;;;;;;79.38;37.40;;;5.00;60.30;;;;;;5036246;28;20473;-21
2022/03/11 00:29:29;;;;;;;85.45;39.17;;;5.00;59.20;;;;;;5036142;28;20524;-21
2022/03/11 00:31:55;;;;;;;76.60;36.70;;;5.10;59.80;;;;;;5036110;28;20021;-22
2022/03/11 00:34:21;;;;;;;73.03;35.15;;;5.00;59.40;;;;;;5034681;28;20076;-21
2022/03/11 00:36:47;;;;;;;82.82;38.97;;;5.10;59.30;;;;;;5036303;28;20030;-21
2022/03/11 00:39:13;;;;;;;81.05;37.25;;;5.10;60.00;;;;;;5036407;28;20120;-21
2022/03/11 00:41:39;;;;;;;86.72;41.08;;;5.10;60.60;;;;;;5036283;28;20037;-23
2022/03/11 00:44:06;;;;;;;74.43;36.22;;;5.10;58.30;;;;;;5036195;28;20096;-21
2022/03/11 00:46:32;;;;;;;82.95;39.83;;;5.00;58.50;;;;;;5035675;28;20119;-21
2022/03/11 00:48:58;;;;;;;68.10;33.78;;;5.10;60.00;;;;;;5036251;28;20108;-23
2022/03/11 00:51:24;;;;;;;70.50;32.90;;;5.10;58.90;;;;;;5036069;28;20061;-23
2022/03/11 00:53:50;;;;;;;64.47;32.70;;;5.00;58.40;;;;;;5035599;28;20504;-21
2022/03/11 00:56:16;;;;;;;66.60;31.23;;;5.00;56.40;;;;;;5036115;28;20068;-24
2022/03/11 00:58:42;;;;;;;56.50;27.38;;;5.00;56.90;;;;;;5035642;28;20393;-21
2022/03/11 01:01:08;;;;;;;61.88;30.17;;;4.90;57.40;;;;;;5035221;28;20049;-23
2022/03/11 01:03:34;;;;;;;67.88;33.67;;;4.90;58.00;;;;;;5035557;28;20536;-22
2022/03/11 01:06:00;;;;;;;59.95;29.05;;;4.90;57.10;;;;;;5035624;28;20034;-21
2022/03/11 01:08:26;;;;;;;73.68;33.83;;;4.90;58.10;;;;;;5033934;28;20071;-23
2022/03/11 01:10:52;;;;;;;51.67;24.55;;;4.90;57.60;;;;;;5036036;28;20032;-21
2022/03/11 01:13:18;;;;;;;41.47;20.65;;;4.80;57.80;;;;;;5035995;28;20075;-23
2022/03/11 01:15:44;;;;;;;45.70;20.98;;;4.80;55.80;;;;;;5035369;28;20032;-21
2022/03/11 01:18:10;;;;;;;39.30;18.83;;;4.80;56.60;;;;;;5035302;28;20029;-21
2022/03/11 01:20:36;;;;;;;75.63;37.75;;;4.80;56.00;;;;;;5034778;28;20084;-21
2022/03/11 01:23:02;;;;;;;48.05;22.88;;;4.80;58.10;;;;;;5035385;28;20060;-21
2022/03/11 01:25:28;;;;;;;57.20;28.70;;;4.80;56.80;;;;;;5035453;28;20061;-21
2022/03/11 01:27:54;;;;;;;48.97;22.75;;;4.70;57.90;;;;;;5035200;28;20048;-21
2022/03/11 01:30:21;;;;;;;50.30;23.08;;;4.80;57.30;;;;;;5034342;28;20073;-23
2022/03/11 01:32:47;;;;;;;49.28;25.23;;;4.70;56.90;;;;;;5035496;28;20474;-22
2022/03/11 01:35:13;;;;;;;65.07;30.83;;;4.70;57.30;;;;;;5035979;28;20026;-21
2022/03/11 01:37:39;;;;;;;57.45;27.33;;;4.70;58.60;;;;;;5035160;28;20026;-23
2022/03/11 01:40:06;;;;;;;45.85;24.17;;;4.80;57.80;;;;;;5034908;28;20397;-22
2022/03/11 01:42:34;;;;;;;48.30;22.40;;;4.80;58.50;;;;;;5034672;28;20506;-21
2022/03/11 01:45:01;;;;;;;60.95;28.80;;;4.80;57.70;;;;;;5035015;28;20175;-21
2022/03/11 01:47:27;;;;;;;41.97;20.73;;;4.80;58.70;;;;;;5035154;28;20446;-23
2022/03/11 01:49:53;;;;;;;41.03;19.60;;;4.90;58.00;;;;;;5034889;28;20060;-21
2022/03/11 01:52:19;;;;;;;46.25;22.67;;;4.90;58.30;;;;;;5034349;28;20021;-22
2022/03/11 01:54:45;;;;;;;44.60;21.98;;;4.90;59.20;;;;;;5034517;28;20075;-21
2022/03/11 01:57:13;;;;;;;50.58;24.50;;;5.00;58.50;;;;;;5034887;28;20017;-21
2022/03/11 01:59:39;;;;;;;57.95;27.52;;;5.00;58.70;;;;;;5034515;28;20028;-21
2022/03/11 02:02:06;;;;;;;47.50;23.55;;;5.10;59.10;;;;;;5034484;28;20511;-22
2022/03/11 02:04:33;;;;;;;50.80;25.73;;;5.10;58.40;;;;;;5034281;28;20030;-21
2022/03/11 02:06:59;;;;;;;48.22;24.02;;;5.20;59.20;;;;;;5034640;28;20034;-21
2022/03/11 02:09:25;;;;;;;38.63;19.45;;;5.30;58.10;;;;;;5034428;28;20397;-21
2022/03/11 02:11:51;;;;;;;59.88;28.92;;;5.40;58.30;;;;;;5034265;28;20444;-22
2022/03/11 02:14:17;;;;;;;45.33;22.75;;;5.50;57.90;;;;;;5034350;28;20065;-21
2022/03/11 02:16:43;;;;;;;50.45;24.08;;;5.60;56.90;;;;;;5034223;28;20028;-21
2022/03/11 02:19:09;;;;;;;54.00;26.27;;;5.60;57.30;;;;;;5034140;28;20049;-21
2022/03/11 02:21:43;;;;;;;39.20;19.77;;;5.70;57.50;;;;;;5034395;28;20074;-21
2022/03/11 02:24:10;;;;;;;44.92;23.33;;;5.80;56.50;;;;;;5034328;28;20025;-22
2022/03/11 02:26:38;;;;;;;39.95;19.42;;;5.80;57.70;;;;;;5032491;28;20048;-21
2022/03/11 02:29:06;;;;;;;38.13;20.10;;;5.90;57.70;;;;;;5034164;28;20072;-22
2022/03/11 02:31:33;;;;;;;35.50;17.02;;;5.90;57.30;;;;;;5034143;28;20444;-21
2022/03/11 02:34:01;;;;;;;29.80;14.10;;;5.90;57.30;;;;;;5034189;28;20025;-21
2022/03/11 02:36:27;;;;;;;31.77;16.13;;;5.90;56.60;;;;;;5033928;28;20060;-22
2022/03/11 02:38:54;;;;;;;33.60;17.65;;;5.90;57.00;;;;;;5034028;28;20536;-21
2022/03/11 02:41:20;;;;;;;34.03;18.42;;;6.00;56.80;;;;;;5033194;28;20022;-22
2022/03/11 02:43:46;;;;;;;35.35;17.95;;;6.00;56.50;;;;;;5034079;28;20025;-21
2022/03/11 02:46:14;;;;;;;25.75;13.90;;;6.00;57.00;;;;;;5033518;28;20029;-22
2022/03/11 02:48:41;;;;;;;29.67;15.60;;;6.00;56.10;;;;;;5033568;28;20036;-23
2022/03/11 02:51:07;;;;;;;33.72;16.80;;;6.00;56.50;;;;;;5033523;28;20037;-22
2022/03/11 02:53:37;;;;;;;21.35;11.60;;;6.10;56.10;;;;;;5033420;28;20070;-21
2022/03/11 02:56:04;;;;;;;26.17;12.90;;;6.00;55.40;;;;;;5033503;28;20469;-21
2022/03/11 02:58:29;;;;;;;22.23;12.00;;;6.10;55.00;;;;;;5031942;28;20030;-22
2022/03/11 03:00:55;;;;;;;22.45;11.73;;;6.10;54.60;;;;;;5033414;28;20025;-21
2022/03/11 03:03:21;;;;;;;18.33;9.63;;;6.10;54.30;;;;;;5033477;28;20096;-21
2022/03/11 03:05:47;;;;;;;15.48;7.85;;;6.10;54.20;;;;;;5033616;28;20397;-21
2022/03/11 03:08:14;;;;;;;18.23;9.32;;;6.10;54.10;;;;;;5033152;28;20021;-23
2022/03/11 03:10:40;;;;;;;17.77;9.45;;;6.20;53.80;;;;;;5033581;28;20061;-21
2022/03/11 03:13:05;;;;;;;29.88;16.55;;;6.20;53.80;;;;;;5032066;28;20127;-21
2022/03/11 03:15:32;;;;;;;20.58;11.32;;;6.20;53.70;;;;;;5033233;28;20079;-21
2022/03/11 03:17:58;;;;;;;16.25;8.77;;;6.20;53.60;;;;;;5033167;28;20029;-23
2022/03/11 03:20:24;;;;;;;22.77;12.40;;;6.20;53.30;;;;;;5032748;28;20050;-21
2022/03/11 03:22:50;;;;;;;21.02;11.50;;;6.20;53.80;;;;;;5033065;28;20484;-21
2022/03/11 03:25:17;;;;;;;17.77;9.55;;;6.20;53.30;;;;;;5033202;28;20120;-21
2022/03/11 03:27:43;;;;;;;34.30;16.08;;;6.20;53.30;;;;;;5033255;28;20481;-21
2022/03/11 03:30:09;;;;;;;17.25;9.07;;;6.20;53.70;;;;;;5033275;28;20038;-21
2022/03/11 03:32:39;;;;;;;21.17;12.23;;;6.30;53.90;;;;;;5032866;28;20033;-21
2022/03/11 03:35:05;;;;;;;18.77;10.48;;;6.20;53.80;;;;;;5033615;28;20025;-21
2022/03/11 03:37:31;;;;;;;26.02;14.43;;;6.30;53.50;;;;;;5033243;28;20485;-21
2022/03/11 03:39:56;;;;;;;28.13;13.75;;;6.30;54.60;;;;;;5033230;28;20060;-23
2022/03/11 03:42:22;;;;;;;27.85;15.07;;;6.30;54.30;;;;;;5032882;28;20543;-22
2022/03/11 03:44:48;;;;;;;20.42;11.95;;;6.30;54.20;;;;;;5033350;28;20052;-20
2022/03/11 03:47:14;;;;;;;20.13;10.52;;;6.30;53.80;;;;;;5031648;28;20080;-20
2022/03/11 03:49:40;;;;;;;22.88;12.80;;;6.30;54.20;;;;;;5032843;28;20037;-22
2022/03/11 03:52:11;;;;;;;29.15;16.20;;;6.30;54.40;;;;;;5032957;28;20021;-22
2022/03/11 03:54:39;;;;;;;24.30;14.27;;;6.30;55.00;;;;;;5036875;28;20025;-23
2022/03/11 03:57:06;;;;;;;25.88;14.93;;;6.30;54.00;;;;;;5036834;28;20112;-22
2022/03/11 03:59:32;;;;;;;20.33;11.32;;;6.30;54.40;;;;;;5036757;28;20028;-21
2022/03/11 04:01:58;;;;;;;26.42;13.40;;;6.30;53.70;;;;;;5036853;28;20052;-22
2022/03/11 04:04:24;;;;;;;20.85;12.00;;;6.30;53.90;;;;;;5036477;28;20028;-21
2022/03/11 04:06:50;;;;;;;22.48;11.98;;;6.40;53.90;;;;;;5036581;28;20037;-21
2022/03/11 04:09:16;;;;;;;27.25;15.32;;;6.30;54.60;;;;;;5036506;28;20164;-22
2022/03/11 04:11:42;;;;;;;21.38;11.27;;;6.40;54.80;;;;;;5036822;28;20116;-22
2022/03/11 04:14:09;;;;;;;22.90;13.35;;;6.40;54.70;;;;;;5037110;28;20420;-20
2022/03/11 04:16:35;;;;;;;30.80;16.05;;;6.40;54.70;;;;;;5036533;28;20022;-22
2022/03/11 04:19:00;;;;;;;19.42;10.43;;;6.40;54.70;;;;;;5034940;28;20522;-21
2022/03/11 04:21:26;;;;;;;18.80;10.15;;;6.40;54.60;;;;;;5036278;28;20025;-21
2022/03/11 04:23:52;;;;;;;21.10;12.52;;;6.40;55.00;;;;;;5036238;28;20033;-21
2022/03/11 04:26:18;;;;;;;20.40;10.77;;;6.40;55.00;;;;;;5036037;28;20029;-21
2022/03/11 04:28:44;;;;;;;22.42;12.90;;;6.40;54.90;;;;;;5036570;28;20117;-21
2022/03/11 04:31:12;;;;;;;23.77;13.85;;;6.40;55.00;;;;;;5036992;28;20033;-20
2022/03/11 04:33:40;;;;;;;25.10;13.82;;;6.40;55.10;;;;;;5036159;28;20487;-21
2022/03/11 04:36:07;;;;;;;29.17;13.95;;;6.40;54.90;;;;;;5036119;28;20022;-21
2022/03/11 04:38:34;;;;;;;22.67;12.50;;;6.40;54.80;;;;;;5034596;28;20033;-21
2022/03/11 04:41:01;;;;;;;24.15;13.85;;;6.50;54.50;;;;;;5036476;28;20050;-21
2022/03/11 04:43:28;;;;;;;21.20;11.25;;;6.40;54.40;;;;;;5036017;28;20083;-20
2022/03/11 04:45:53;;;;;;;23.27;12.57;;;6.50;54.30;;;;;;5035830;28;20493;-20
2022/03/11 04:48:20;;;;;;;23.73;13.48;;;6.50;54.60;;;;;;5035774;28;20045;-20
2022/03/11 04:50:46;;;;;;;22.50;12.50;;;6.50;54.90;;;;;;5035878;28;20508;-20
2022/03/11 04:53:12;;;;;;;23.67;12.55;;;6.50;54.70;;;;;;5034540;28;20116;-22
2022/03/11 04:55:38;;;;;;;29.02;14.07;;;6.50;54.60;;;;;;5035916;28;20018;-20
2022/03/11 04:58:04;;;;;;;24.13;13.50;;;6.50;54.60;;;;;;5035682;28;20026;-23
2022/03/11 05:00:30;;;;;;;23.48;13.00;;;6.50;54.60;;;;;;5035510;28;20024;-22
2022/03/11 05:02:56;;;;;;;22.67;12.20;;;6.50;54.30;;;;;;5035929;28;20033;-21
2022/03/11 05:05:21;;;;;;;25.55;15.00;;;6.50;53.90;;;;;;5034559;28;20049;-20
2022/03/11 05:07:47;;;;;;;26.38;12.85;;;6.60;53.90;;;;;;5035453;28;20107;-21
2022/03/11 05:10:14;;;;;;;23.17;12.75;;;6.50;54.00;;;;;;5035548;28;20378;-21
2022/03/11 05:12:41;;;;;;;20.95;11.77;;;6.60;54.30;;;;;;5035645;28;20152;-21
2022/03/11 05:15:09;;;;;;;26.80;13.52;;;6.50;54.20;;;;;;5035369;28;20075;-23
2022/03/11 05:17:35;;;;;;;18.45;10.93;;;6.60;54.30;;;;;;5035587;28;20030;-23
2022/03/11 05:20:06;;;;;;;27.70;14.68;;;6.50;54.30;;;;;;5034972;28;20060;-21
2022/03/11 05:22:33;;;;;;;27.73;12.90;;;6.60;54.10;;;;;;5035336;28;20101;-22
2022/03/11 05:25:00;;;;;;;21.77;11.90;;;6.60;53.90;;;;;;5035223;28;20485;-21
2022/03/11 05:27:26;;;;;;;23.85;12.23;;;6.60;54.10;;;;;;5035525;28;20029;-22
2022/03/11 05:29:52;;;;;;;24.85;12.73;;;6.60;54.10;;;;;;5035267;28;20025;-21
2022/03/11 05:32:20;;;;;;;22.85;12.98;;;6.60;54.20;;;;;;5035524;28;20052;-21
2022/03/11 05:34:48;;;;;;;20.73;10.38;;;6.60;54.40;;;;;;5035239;28;20366;-21
2022/03/11 05:37:15;;;;;;;25.88;13.55;;;6.60;53.90;;;;;;5035180;28;20021;-21
2022/03/11 05:39:41;;;;;;;28.55;16.58;;;6.60;54.20;;;;;;5034800;28;20036;-21
2022/03/11 05:42:08;;;;;;;29.55;17.08;;;6.60;54.50;;;;;;5035200;28;20025;-21
2022/03/11 05:44:34;;;;;;;19.00;10.65;;;6.60;54.50;;;;;;5034715;28;20053;-22
2022/03/11 05:47:00;;;;;;;25.15;15.18;;;6.60;54.10;;;;;;5034960;28;20029;-22
2022/03/11 05:49:26;;;;;;;22.35;11.88;;;6.60;54.00;;;;;;5035082;28;20033;-21
2022/03/11 05:51:52;;;;;;;21.50;11.65;;;6.60;54.00;;;;;;5034688;28;20422;-22
2022/03/11 05:54:18;;;;;;;18.92;11.38;;;6.60;53.60;;;;;;5034439;28;20030;-21
2022/03/11 05:56:46;;;;;;;15.20;8.02;;;6.60;53.30;;;;;;5034563;28;20093;-21
2022/03/11 05:59:12;;;;;;;15.43;8.48;;;6.60;53.00;;;;;;5034542;28;20045;-21
2022/03/11 06:01:37;;;;;;;12.35;6.85;;;6.60;52.80;;;;;;5034504;28;20030;-21
2022/03/11 06:04:04;;;;;;;13.40;6.85;;;6.70;52.50;;;;;;5034560;28;20048;-22
2022/03/11 06:06:32;;;;;;;10.48;6.20;;;6.70;52.20;;;;;;5034106;28;20056;-22
2022/03/11 06:08:58;;;;;;;22.45;12.60;;;6.70;52.40;;;;;;5034238;28;20394;-21
2022/03/11 06:11:24;;;;;;;14.50;8.50;;;6.70;52.60;;;;;;5034937;28;20478;-21
2022/03/11 06:13:50;;;;;;;22.40;11.57;;;6.70;52.60;;;;;;5034742;28;20040;-21
2022/03/11 06:16:16;;;;;;;19.80;10.18;;;6.70;52.90;;;;;;5034086;28;20022;-21
2022/03/11 06:18:43;;;;;;;15.25;9.13;;;6.70;53.00;;;;;;5033940;28;20025;-21
2022/03/11 06:21:09;;;;;;;27.42;14.52;;;6.70;52.70;;;;;;5034181;28;20486;-22
2022/03/11 06:23:36;;;;;;;28.00;13.65;;;6.70;53.00;;;;;;5034295;28;20079;-21
2022/03/11 06:26:04;;;;;;;16.95;9.75;;;6.80;53.10;;;;;;5033923;28;20497;-21
2022/03/11 06:28:32;;;;;;;20.48;11.52;;;6.80;52.70;;;;;;5033800;28;20025;-21
2022/03/11 06:30:58;;;;;;;20.30;11.15;;;6.80;52.60;;;;;;5034560;28;20079;-21
2022/03/11 06:33:23;;;;;;;13.80;8.35;;;6.80;52.80;;;;;;5032727;28;20029;-21
2022/03/11 06:35:51;;;;;;;12.68;7.63;;;6.80;52.70;;;;;;5034124;28;20099;-21
2022/03/11 06:38:18;;;;;;;11.88;6.88;;;6.90;52.50;;;;;;5033908;28;20033;-21
2022/03/11 06:40:44;;;;;;;10.55;5.85;;;6.90;52.30;;;;;;5033999;28;20103;-21
2022/03/11 06:43:11;;;;;;;13.27;6.07;;;6.90;52.10;;;;;;5034017;28;20098;-22
2022/03/11 06:45:37;;;;;;;10.65;5.60;;;6.90;51.90;;;;;;5032697;28;20040;-22
2022/03/11 06:48:04;;;;;;;8.07;4.55;;;6.90;51.70;;;;;;5033611;28;20512;-21
2022/03/11 06:50:30;;;;;;;10.52;4.80;;;7.00;51.50;;;;;;5033325;28;20045;-21
2022/03/11 06:52:56;;;;;;;11.88;6.20;;;7.00;51.40;;;;;;5033470;28;20068;-21
2022/03/11 06:55:22;;;;;;;10.70;6.13;;;7.00;51.40;;;;;;5033817;28;20029;-22
2022/03/11 06:57:48;;;;;;;18.90;9.88;;;7.10;51.30;;;;;;5033836;28;20128;-21
2022/03/11 07:00:14;;;;;;;10.52;6.03;;;7.10;51.30;;;;;;5033221;28;20580;-21
2022/03/11 07:02:41;;;;;;;18.95;10.93;;;7.20;51.20;;;;;;5033368;28;20481;-21
2022/03/11 07:05:09;;;;;;;17.60;10.07;;;7.20;51.50;;;;;;5033557;28;20033;-21
2022/03/11 07:07:35;;;;;;;12.52;7.22;;;7.20;51.40;;;;;;5033635;28;20110;-23
2022/03/11 07:10:04;;;;;;;19.42;10.65;;;7.30;51.60;;;;;;5033659;28;20556;-23
2022/03/11 07:12:31;;;;;;;12.13;7.10;;;7.30;51.70;;;;;;5033590;28;20443;-22
2022/03/11 07:15:01;;;;;;;23.17;13.52;;;7.40;51.50;;;;;;5033751;28;20025;-22
2022/03/11 07:17:27;;;;;;;16.17;8.98;;;7.40;51.60;;;;;;5033188;28;20397;-21
2022/03/11 07:19:54;;;;;;;22.67;10.88;;;7.40;51.80;;;;;;5032999;28;20045;-21
2022/03/11 07:22:20;;;;;;;25.48;14.77;;;7.40;52.00;;;;;;5033281;28;20045;-23
2022/03/11 07:24:46;;;;;;;21.27;10.90;;;7.50;52.10;;;;;;5033047;28;20026;-21
2022/03/11 07:27:13;;;;;;;20.50;9.48;;;7.50;51.80;;;;;;5032844;28;20044;-21
2022/03/11 07:29:40;;;;;;;21.10;11.95;;;7.60;51.60;;;;;;5033419;28;20021;-21
2022/03/11 07:32:08;;;;;;;21.27;11.50;;;7.60;51.70;;;;;;5033330;28;20026;-21
2022/03/11 07:34:34;;;;;;;22.05;11.50;;;7.60;51.40;;;;;;5033205;28;20079;-21
2022/03/11 07:37:01;;;;;;;17.80;10.77;;;7.70;51.50;;;;;;5032970;28;20026;-22
2022/03/11 07:39:27;;;;;;;13.90;8.15;;;7.70;51.40;;;;;;5033228;28;20044;-21
2022/03/11 07:41:53;;;;;;;24.48;14.38;;;7.70;51.50;;;;;;5033248;28;20452;-21
2022/03/11 07:44:21;;;;;;;21.10;12.50;;;7.80;52.00;;;;;;5032713;28;20061;-23
2022/03/11 07:46:47;;;;;;;20.88;12.85;;;7.80;51.30;;;;;;5033107;28;20073;-21
2022/03/11 07:49:14;;;;;;;21.83;13.00;;;7.80;51.20;;;;;;5032906;28;20026;-21
2022/03/11 07:51:40;;;;;;;21.02;11.88;;;7.90;51.00;;;;;;5033136;28;20029;-22
2022/03/11 07:54:07;;;;;;;24.23;13.95;;;7.90;50.80;;;;;;5032880;28;20116;-21
2022/03/11 07:56:33;;;;;;;19.60;11.68;;;7.90;51.00;;;;;;5032986;28;20025;-21
2022/03/11 07:59:03;;;;;;;19.50;10.50;;;7.90;50.90;;;;;;5032811;28;20363;-20
2022/03/11 08:01:29;;;;;;;23.08;11.77;;;7.90;51.00;;;;;;5032842;28;20029;-23
2022/03/11 08:03:55;;;;;;;17.73;10.52;;;8.00;50.80;;;;;;5033879;28;20033;-22
2022/03/11 08:06:21;;;;;;;19.58;10.27;;;8.00;50.80;;;;;;5033158;28;20416;-21
2022/03/11 08:08:47;;;;;;;21.95;12.60;;;8.00;50.90;;;;;;5032950;28;20078;-21
2022/03/11 08:11:15;;;;;;;19.45;11.75;;;8.10;50.80;;;;;;5033333;28;20026;-21
2022/03/11 08:13:42;;;;;;;21.80;12.95;;;8.10;50.30;;;;;;5032638;28;20051;-21
2022/03/11 08:16:09;;;;;;;26.77;13.50;;;8.10;50.30;;;;;;5032611;28;20100;-21
2022/03/11 08:18:35;;;;;;;23.05;13.18;;;8.20;50.10;;;;;;5032178;28;20037;-21
2022/03/11 08:21:05;;;;;;;24.27;12.05;;;8.30;50.30;;;;;;5032643;28;20033;-21
2022/03/11 08:23:31;;;;;;;21.58;11.90;;;8.30;50.40;;;;;;5032827;28;20033;-21
2022/03/11 08:25:57;;;;;;;22.70;13.05;;;8.40;50.20;;;;;;5031276;28;20030;-21
2022/03/11 08:28:24;;;;;;;20.50;11.15;;;8.40;50.00;;;;;;5032614;28;20034;-22
2022/03/11 08:30:50;;;;;;;20.75;11.32;;;8.50;50.00;;;;;;5033275;28;20017;-21
2022/03/11 08:33:20;;;;;;;21.63;12.27;;;8.60;49.80;;;;;;5032565;28;20490;-21
2022/03/11 08:35:52;;;;;;;22.38;12.55;;;8.60;49.30;;;;;;5032817;28;20037;-21
2022/03/11 08:38:19;;;;;;;19.38;11.65;;;8.70;49.10;;;;;;5032218;28;20104;-21
2022/03/11 08:40:44;;;;;;;19.48;11.73;;;8.70;49.00;;;;;;5035307;28;20026;-21
2022/03/11 08:43:11;;;;;;;22.13;12.90;;;8.80;49.40;;;;;;5036039;28;20037;-21
2022/03/11 08:45:37;;;;;;;24.15;13.43;;;8.80;48.90;;;;;;5035869;28;20069;-21
2022/03/11 08:48:03;;;;;;;22.38;12.65;;;8.90;48.80;;;;;;5036219;28;20013;-21
2022/03/11 08:50:29;;;;;;;19.17;10.70;;;8.90;48.80;;;;;;5035602;28;20486;-21
2022/03/11 08:52:55;;;;;;;18.52;11.05;;;9.00;48.90;;;;;;5035756;28;20124;-21
2022/03/11 08:55:21;;;;;;;21.92;12.18;;;9.00;48.40;;;;;;5034920;28;20026;-23
2022/03/11 08:57:51;;;;;;;23.98;13.90;;;9.10;48.20;;;;;;5036056;28;20401;-21
2022/03/11 09:00:19;;;;;;;23.27;12.90;;;9.10;48.20;;;;;;5036055;28;20117;-21
2022/03/11 09:02:46;;;;;;;22.15;13.25;;;9.20;48.30;;;;;;5035878;28;20394;-21
2022/03/11 09:05:15;;;;;;;21.35;12.60;;;9.20;48.20;;;;;;5035557;28;20484;-21
2022/03/11 09:07:41;;;;;;;20.50;12.13;;;9.20;48.00;;;;;;5035910;28;20068;-21
2022/03/11 09:10:10;;;;;;;20.80;11.43;;;9.30;48.00;;;;;;5035423;28;20057;-21
2022/03/11 09:12:37;;;;;;;20.00;11.00;;;9.40;47.70;;;;;;5035265;28;20060;-21
2022/03/11 09:15:05;;;;;;;23.70;13.88;;;9.40;47.60;;;;;;5035887;28;20025;-21
2022/03/11 09:17:32;;;;;;;21.38;11.48;;;9.40;47.70;;;;;;5035353;28;20393;-21
2022/03/11 09:20:02;;;;;;;18.50;10.90;;;9.50;47.70;;;;;;5035237;28;20054;-21
2022/03/11 09:22:29;;;;;;;19.90;11.90;;;9.60;47.40;;;;;;5035136;28;20025;-21
2022/03/11 09:24:55;;;;;;;19.58;11.20;;;9.70;47.10;;;;;;5035788;28;20014;-21
2022/03/11 09:27:23;;;;;;;22.85;12.23;;;9.70;47.00;;;;;;5033923;28;20034;-22
2022/03/11 09:29:50;;;;;;;22.63;13.52;;;9.70;46.70;;;;;;5035443;28;20029;-21
2022/03/11 09:32:17;;;;;;;21.20;11.35;;;9.80;46.70;;;;;;5035121;28;20026;-21
2022/03/11 09:34:43;;;;;;;25.33;10.65;;;9.80;46.40;;;;;;5035345;28;20029;-21
2022/03/11 09:37:10;;;;;;;18.30;10.88;;;9.90;46.60;;;;;;5035020;28;20029;-21
2022/03/11 09:39:37;;;;;;;24.80;12.85;;;9.90;46.50;;;;;;5034905;28;20489;-22
2022/03/11 09:42:04;;;;;;;20.85;11.23;;;9.90;46.50;;;;;;5034931;28;20108;-21
2022/03/11 09:44:32;;;;;;;24.63;13.48;;;9.90;46.50;;;;;;5035026;28;20026;-21
2022/03/11 09:46:58;;;;;;;19.98;10.45;;;9.90;46.10;;;;;;5036070;28;20072;-21
2022/03/11 09:49:25;;;;;;;19.00;10.85;;;10.00;46.30;;;;;;5034799;28;20064;-20
2022/03/11 09:51:51;;;;;;;23.40;13.10;;;10.00;46.30;;;;;;5034652;28;20037;-21
2022/03/11 09:54:17;;;;;;;16.83;9.82;;;10.00;46.00;;;;;;5034618;28;20037;-21
2022/03/11 09:56:44;;;;;;;24.17;14.15;;;10.10;46.00;;;;;;5034619;28;20428;-21
2022/03/11 09:59:12;;;;;;;18.08;10.75;;;10.10;46.20;;;;;;5034898;28;20037;-21
2022/03/11 10:01:42;;;;;;;17.90;11.10;;;10.10;46.10;;;;;;5034848;28;20033;-21
2022/03/11 10:04:10;;;;;;;17.58;11.32;;;10.10;46.00;;;;;;5035099;28;20036;-21
2022/03/11 10:06:47;;;;;;;20.48;12.18;;;10.20;46.00;;;;;;5034495;28;20118;-23
2022/03/11 10:09:18;;;;;;;26.13;12.60;;;10.20;45.80;;;;;;5034313;28;20029;-22
2022/03/11 10:11:58;;;;;;;18.50;11.82;;;10.20;45.70;;;;;;5034604;28;20052;-22
2022/03/11 10:14:35;;;;;;;20.92;11.52;;;10.20;45.70;;;;;;5034149;28;20108;-21
2022/03/11 10:17:04;;;;;;;20.27;11.85;;;10.20;45.60;;;;;;5034302;28;20044;-21
2022/03/11 10:19:30;;;;;;;21.48;12.13;;;10.20;45.60;;;;;;5033973;28;20050;-21
2022/03/11 10:21:58;;;;;;;21.90;12.02;;;10.30;45.60;;;;;;5034141;28;20028;-21
2022/03/11 10:24:25;;;;;;;23.45;12.60;;;10.30;45.60;;;;;;5033883;28;20029;-21
2022/03/11 10:26:54;;;;;;;19.80;12.02;;;10.30;45.50;;;;;;5034638;28;20034;-20
2022/03/11 10:29:27;;;;;;;22.85;12.88;;;10.40;45.30;;;;;;5034385;28;20018;-21
2022/03/11 10:31:58;;;;;;;16.55;10.27;;;10.40;45.20;;;;;;5034225;28;20030;-23
2022/03/11 10:34:27;;;;;;;20.52;12.32;;;10.40;45.00;;;;;;5033789;28;20038;-22
2022/03/11 10:37:00;;;;;;;22.17;12.48;;;10.40;45.20;;;;;;5033840;28;20014;-21
2022/03/11 10:39:32;;;;;;;17.80;10.65;;;10.50;45.00;;;;;;5033779;28;20035;-23
2022/03/11 10:42:22;;;;;;;18.45;10.48;;;10.50;45.00;;;;;;5033859;28;20026;-22
2022/03/11 10:45:06;;;;;;;20.02;10.88;;;10.60;45.00;;;;;;5034655;28;20029;-21
2022/03/11 10:47:36;;;;;;;20.20;12.00;;;10.60;45.00;;;;;;5034073;28;20037;-22
2022/03/11 10:50:15;;;;;;;19.00;10.43;;;10.70;44.90;;;;;;5034018;28;20512;-22
2022/03/11 10:52:49;;;;;;;18.63;11.23;;;10.70;44.90;;;;;;5033648;28;20439;-22
2022/03/11 10:55:29;;;;;;;18.55;11.18;;;10.80;44.80;;;;;;5033550;28;20029;-22
2022/03/11 10:57:57;;;;;;;17.33;9.77;;;10.90;44.70;;;;;;5033848;28;20048;-22
2022/03/11 11:00:25;;;;;;;17.80;9.65;;;11.00;44.60;;;;;;5033639;28;20025;-22
2022/03/11 11:02:56;;;;;;;17.23;8.73;;;11.00;44.60;;;;;;5033036;28;20045;-21
2022/03/11 11:05:24;;;;;;;16.88;10.30;;;11.10;44.50;;;;;;5032178;28;20108;-21
2022/03/11 11:07:51;;;;;;;16.88;9.80;;;11.10;44.40;;;;;;5033729;28;20025;-21
2022/03/11 11:10:20;;;;;;;20.90;11.98;;;11.20;44.40;;;;;;5033155;28;20101;-23
2022/03/11 11:12:48;;;;;;;18.67;11.00;;;11.20;44.30;;;;;;5032064;28;20397;-21
2022/03/11 11:15:15;;;;;;;16.67;8.82;;;11.30;44.20;;;;;;5033234;28;20156;-22
2022/03/11 11:17:46;;;;;;;13.98;9.75;;;11.40;44.20;;;;;;5033246;28;20033;-23
2022/03/11 11:20:17;;;;;;;16.10;10.23;;;11.40;44.10;;;;;;5033103;28;20057;-21
2022/03/11 11:22:46;;;;;;;14.88;9.70;;;11.40;43.90;;;;;;5033176;28;20033;-21
2022/03/11 11:25:14;;;;;;;17.08;9.77;;;11.50;43.90;;;;;;5033601;28;20018;-21
2022/03/11 11:27:41;;;;;;;17.98;10.48;;;11.50;43.60;;;;;;5031859;28;20034;-21
2022/03/11 11:30:08;;;;;;;18.55;10.77;;;11.60;43.60;;;;;;5033140;28;20493;-23
2022/03/11 11:32:38;;;;;;;16.33;10.23;;;11.60;43.50;;;;;;5032856;28;20393;-22
2022/03/11 11:35:27;;;;;;;16.58;10.07;;;11.70;43.60;;;;;;5033051;28;20025;-22
2022/03/11 11:37:55;;;;;;;16.85;10.50;;;11.80;43.50;;;;;;5033100;28;20025;-22
2022/03/11 11:40:28;;;;;;;21.00;11.05;;;11.80;43.40;;;;;;5033791;28;20025;-21
2022/03/11 11:43:13;;;;;;;15.67;10.07;;;11.90;43.20;;;;;;5033110;28;20037;-21
2022/03/11 11:45:48;;;;;;;19.08;10.35;;;11.90;43.30;;;;;;5032887;28;20489;-21
2022/03/11 11:48:33;;;;;;;19.67;11.50;;;11.90;43.10;;;;;;5033088;28;20030;-22
2022/03/11 11:51:07;;;;;;;17.27;10.90;;;12.00;43.00;;;;;;5033235;28;20029;-21
2022/03/11 11:53:34;;;;;;;16.77;9.15;;;12.00;43.20;;;;;;5033092;28;20060;-21
2022/03/11 11:56:01;;;;;;;20.98;10.93;;;12.10;43.10;;;;;;5032876;28;20029;-20
2022/03/11 11:58:32;;;;;;;19.13;10.20;;;12.20;43.00;;;;;;5032653;28;20033;-20
2022/03/11 12:00:58;;;;;;;19.42;10.82;;;12.20;43.00;;;;;;5032888;28;20537;-21
2022/03/11 12:03:48;;;;;;;19.25;9.75;;;12.30;42.60;;;;;;5033048;28;20029;-20
2022/03/11 12:06:55;;;;;;;18.55;10.85;;;12.40;42.70;;;;;;5032797;28;20037;-21
2022/03/11 12:09:42;;;;;;;18.55;10.93;;;12.40;42.50;;;;;;5032665;28;20029;-22
2022/03/11 12:12:20;;;;;;;20.88;11.23;;;12.50;42.50;;;;;;5033003;28;20374;-22
2022/03/11 12:14:59;;;;;;;14.73;9.02;;;12.60;42.70;;;;;;5034146;28;20034;-21
2022/03/11 12:17:37;;;;;;;17.35;9.88;;;12.70;42.40;;;;;;5037094;28;20029;-21
2022/03/11 12:20:46;;;;;;;19.25;9.68;;;12.80;42.10;;;;;;5036306;28;20052;-21
2022/03/11 12:23:15;;;;;;;20.20;10.73;;;12.90;41.50;;;;;;5036649;28;20030;-21
2022/03/11 12:25:54;;;;;;;18.02;10.55;;;12.90;42.00;;;;;;5036573;28;20030;-21
2022/03/11 12:28:35;;;;;;;18.20;11.13;;;13.00;41.80;;;;;;5036330;28;20049;-22
2022/03/11 12:31:04;;;;;;;15.48;9.50;;;13.10;41.30;;;;;;5036298;28;20033;-20
2022/03/11 12:33:44;;;;;;;13.77;8.90;;;13.20;41.60;;;;;;5036545;28;20014;-21
2022/03/11 12:36:11;;;;;;;16.73;9.85;;;13.20;41.40;;;;;;5036774;28;20025;-20
2022/03/11 12:38:39;;;;;;;17.30;9.68;;;13.40;41.20;;;;;;5035939;28;20083;-20